首页
METAR-TAF:

METAR-TAF

机场 :

曼彻斯特机场

曼彻斯特, 英格兰

纬度: 53-21N, 经度: 002-17W, 海拔: 69米

当前天气观测

该预报发布于33分钟前的19:50 UTC
风速5节,风向
温度 3°C
湿度 75%
气压 1005 hPa
能见度10公里或以上

METAR: EGCC 261950Z AUTO 18005KT 9999 NCD 03/M01 Q1005 NOSIG

时间: 20:23 (20:23 UTC)

预报

该预报发布于3小时和14分钟前的17:09 UTC
预报有效从26日的 18点(UTC)到 27日的 24点(UTC)
风速13节,风向西
能见度10公里或以上
散云层高于3000英尺
成为
从 26日的 18点(UTC)到 26日的 21点(UTC)
风速7节,风向南转西南
几率 30% :
短暂存在
从 26日的 22点(UTC)到 27日的 02点(UTC)
能見度: 8000
多云层高于1000英尺
小雨
成为
从 27日的 02点(UTC)到 27日的 05点(UTC)
散云层高于300英尺
多云层高于600英尺
短暂存在
从 27日的 02点(UTC)到 27日的 10点(UTC)
能見度: 2000
多云层高于300英尺
雨, 雪
几率 40% :
短暂存在
从 27日的 04点(UTC)到 27日的 09点(UTC)
能見度: 0800
多云层高于100英尺
成为
从 27日的 09点(UTC)到 27日的 12点(UTC)
风速13节,风向西转西北
散云层高于2500英尺
几率 30% :
短暂存在
从 27日的 12点(UTC)到 27日的 18点(UTC)
风速16节,风向西北,有时为26节阵风
能見度: 6000
阵雨

TAF: EGCC 261709Z 2618/2724 27013KT 9999 SCT030 BECMG 2618/2621 20007KT PROB30 TEMPO 2622/2702 8000 -RA BKN010 BECMG 2702/2705 SCT003 BKN006 TEMPO 2702/2710 2000 RASN BKN003 PROB40 TEMPO 2704/2709 0800 SN BKN001 BECMG 2709/2712 30013KT SCT025 PROB30 TEMPO 2712/2718 31016G26KT 6000 SHRA

超过4000个机场的气象观测和天气预报(METAR&TAF报告)。

可查询的气象台以黄色和红色小点在地图上表示。

将鼠标移到小点上方,可查看气象台名称。

然后点击查看天气观测和预报。

如需切换地图:点击带黑十字的绿色按钮放大地图;点击带横线的绿色按钮缩小地图;或者点击绿色箭头查看邻近地区的地图。


METAR-TAF: